sensor_id;sensor_type;location;lat;lon;timestamp;P1;durP1;ratioP1;P2;durP2;ratioP2
58581;SDS011;44361;51.476;5.700;2023-01-16T00:00:17;5.47;;;0.80;;
58581;SDS011;44361;51.476;5.700;2023-01-16T00:02:43;3.35;;;0.60;;
58581;SDS011;44361;51.476;5.700;2023-01-16T00:05:08;2.97;;;0.82;;
58581;SDS011;44361;51.476;5.700;2023-01-16T00:07:34;3.80;;;0.82;;
58581;SDS011;44361;51.476;5.700;2023-01-16T00:09:59;3.88;;;0.60;;
58581;SDS011;44361;51.476;5.700;2023-01-16T00:12:25;4.60;;;0.70;;
58581;SDS011;44361;51.476;5.700;2023-01-16T00:14:50;3.45;;;0.70;;
58581;SDS011;44361;51.476;5.700;2023-01-16T00:17:16;6.53;;;1.33;;
58581;SDS011;44361;51.476;5.700;2023-01-16T00:19:41;4.00;;;0.77;;
58581;SDS011;44361;51.476;5.700;2023-01-16T00:22:07;5.10;;;1.33;;
58581;SDS011;44361;51.476;5.700;2023-01-16T00:24:32;5.43;;;0.85;;
58581;SDS011;44361;51.476;5.700;2023-01-16T00:26:58;5.75;;;1.30;;
58581;SDS011;44361;51.476;5.700;2023-01-16T00:29:24;7.35;;;0.88;;
58581;SDS011;44361;51.476;5.700;2023-01-16T00:31:49;5.28;;;1.13;;
58581;SDS011;44361;51.476;5.700;2023-01-16T00:34:15;8.35;;;0.90;;
58581;SDS011;44361;51.476;5.700;2023-01-16T00:36:40;4.60;;;1.05;;
58581;SDS011;44361;51.476;5.700;2023-01-16T00:39:06;4.80;;;0.95;;
58581;SDS011;44361;51.476;5.700;2023-01-16T00:41:32;6.85;;;1.17;;
58581;SDS011;44361;51.476;5.700;2023-01-16T00:43:57;9.68;;;1.92;;
58581;SDS011;44361;51.476;5.700;2023-01-16T00:46:24;4.70;;;0.80;;
58581;SDS011;44361;51.476;5.700;2023-01-16T00:48:50;7.80;;;1.20;;
58581;SDS011;44361;51.476;5.700;2023-01-16T00:51:16;4.97;;;0.95;;
58581;SDS011;44361;51.476;5.700;2023-01-16T00:53:41;4.50;;;1.20;;
58581;SDS011;44361;51.476;5.700;2023-01-16T00:56:07;6.35;;;1.13;;
58581;SDS011;44361;51.476;5.700;2023-01-16T00:58:33;9.18;;;1.30;;
58581;SDS011;44361;51.476;5.700;2023-01-16T01:00:59;4.78;;;0.95;;
58581;SDS011;44361;51.476;5.700;2023-01-16T01:03:26;8.90;;;1.52;;
58581;SDS011;44361;51.476;5.700;2023-01-16T01:05:53;7.82;;;1.45;;
58581;SDS011;44361;51.476;5.700;2023-01-16T01:08:18;5.30;;;1.60;;
58581;SDS011;44361;51.476;5.700;2023-01-16T01:10:44;5.82;;;1.15;;
58581;SDS011;44361;51.476;5.700;2023-01-16T01:13:10;5.22;;;1.08;;
58581;SDS011;44361;51.476;5.700;2023-01-16T01:15:35;4.00;;;0.98;;
58581;SDS011;44361;51.476;5.700;2023-01-16T01:18:01;8.57;;;1.20;;
58581;SDS011;44361;51.476;5.700;2023-01-16T01:20:27;8.98;;;1.85;;
58581;SDS011;44361;51.476;5.700;2023-01-16T01:22:53;7.00;;;1.65;;
58581;SDS011;44361;51.476;5.700;2023-01-16T01:25:18;8.95;;;1.52;;
58581;SDS011;44361;51.476;5.700;2023-01-16T01:27:44;5.35;;;1.60;;
58581;SDS011;44361;51.476;5.700;2023-01-16T01:30:10;11.15;;;1.50;;
58581;SDS011;44361;51.476;5.700;2023-01-16T01:32:36;6.18;;;1.60;;
58581;SDS011;44361;51.476;5.700;2023-01-16T01:35:05;10.90;;;1.88;;
58581;SDS011;44361;51.476;5.700;2023-01-16T01:37:32;7.55;;;1.25;;
58581;SDS011;44361;51.476;5.700;2023-01-16T01:39:57;4.38;;;1.30;;
58581;SDS011;44361;51.476;5.700;2023-01-16T01:42:23;8.55;;;1.23;;
58581;SDS011;44361;51.476;5.700;2023-01-16T01:45:14;6.93;;;1.17;;
58581;SDS011;44361;51.476;5.700;2023-01-16T01:47:53;4.53;;;1.25;;
58581;SDS011;44361;51.476;5.700;2023-01-16T01:50:21;7.38;;;1.70;;
58581;SDS011;44361;51.476;5.700;2023-01-16T01:52:55;7.88;;;1.50;;
58581;SDS011;44361;51.476;5.700;2023-01-16T01:55:24;8.00;;;1.75;;
58581;SDS011;44361;51.476;5.700;2023-01-16T01:57:51;11.10;;;2.00;;
58581;SDS011;44361;51.476;5.700;2023-01-16T02:00:22;8.93;;;1.73;;
58581;SDS011;44361;51.476;5.700;2023-01-16T02:02:56;8.15;;;1.80;;
58581;SDS011;44361;51.476;5.700;2023-01-16T02:05:32;6.78;;;1.50;;
58581;SDS011;44361;51.476;5.700;2023-01-16T02:08:03;2.72;;;1.30;;
58581;SDS011;44361;51.476;5.700;2023-01-16T02:10:36;14.55;;;1.80;;
58581;SDS011;44361;51.476;5.700;2023-01-16T02:13:04;8.13;;;1.75;;
58581;SDS011;44361;51.476;5.700;2023-01-16T02:15:30;6.25;;;1.10;;
58581;SDS011;44361;51.476;5.700;2023-01-16T02:17:56;8.43;;;1.33;;
58581;SDS011;44361;51.476;5.700;2023-01-16T02:20:46;6.18;;;1.30;;
58581;SDS011;44361;51.476;5.700;2023-01-16T02:32:36;6.47;;;1.73;;
58581;SDS011;44361;51.476;5.700;2023-01-16T02:35:27;8.77;;;1.20;;
58581;SDS011;44361;51.476;5.700;2023-01-16T02:38:12;4.13;;;1.38;;
58581;SDS011;44361;51.476;5.700;2023-01-16T02:41:09;4.80;;;1.10;;
58581;SDS011;44361;51.476;5.700;2023-01-16T02:46:27;10.90;;;1.80;;
58581;SDS011;44361;51.476;5.700;2023-01-16T02:49:46;8.65;;;1.30;;
58581;SDS011;44361;51.476;5.700;2023-01-16T02:52:05;4.63;;;1.23;;
58581;SDS011;44361;51.476;5.700;2023-01-16T02:54:41;8.02;;;1.33;;
58581;SDS011;44361;51.476;5.700;2023-01-16T02:57:18;6.90;;;1.20;;
58581;SDS011;44361;51.476;5.700;2023-01-16T02:59:46;7.85;;;1.65;;
58581;SDS011;44361;51.476;5.700;2023-01-16T03:02:14;7.60;;;1.80;;
58581;SDS011;44361;51.476;5.700;2023-01-16T03:04:41;9.50;;;1.98;;
58581;SDS011;44361;51.476;5.700;2023-01-16T03:15:29;8.25;;;1.75;;
58581;SDS011;44361;51.476;5.700;2023-01-16T03:21:02;7.50;;;2.05;;
58581;SDS011;44361;51.476;5.700;2023-01-16T03:23:54;13.90;;;1.90;;
58581;SDS011;44361;51.476;5.700;2023-01-16T03:26:41;6.75;;;1.83;;
58581;SDS011;44361;51.476;5.700;2023-01-16T03:29:22;9.38;;;1.80;;
58581;SDS011;44361;51.476;5.700;2023-01-16T03:32:04;7.10;;;1.92;;
58581;SDS011;44361;51.476;5.700;2023-01-16T03:37:15;9.10;;;1.98;;
58581;SDS011;44361;51.476;5.700;2023-01-16T03:39:49;10.65;;;2.00;;
58581;SDS011;44361;51.476;5.700;2023-01-16T03:42:23;12.15;;;1.85;;
58581;SDS011;44361;51.476;5.700;2023-01-16T03:44:55;9.18;;;1.88;;
58581;SDS011;44361;51.476;5.700;2023-01-16T03:47:30;6.05;;;1.63;;
58581;SDS011;44361;51.476;5.700;2023-01-16T03:50:02;8.23;;;2.03;;
58581;SDS011;44361;51.476;5.700;2023-01-16T03:52:32;9.45;;;1.60;;
58581;SDS011;44361;51.476;5.700;2023-01-16T03:57:45;6.20;;;1.73;;
58581;SDS011;44361;51.476;5.700;2023-01-16T04:00:15;6.72;;;1.67;;
58581;SDS011;44361;51.476;5.700;2023-01-16T04:02:48;4.97;;;1.13;;
58581;SDS011;44361;51.476;5.700;2023-01-16T04:05:23;7.80;;;1.80;;
58581;SDS011;44361;51.476;5.700;2023-01-16T04:07:56;4.90;;;1.60;;
58581;SDS011;44361;51.476;5.700;2023-01-16T04:10:26;6.20;;;1.92;;
58581;SDS011;44361;51.476;5.700;2023-01-16T04:12:57;9.38;;;1.90;;
58581;SDS011;44361;51.476;5.700;2023-01-16T04:15:30;7.60;;;1.73;;
58581;SDS011;44361;51.476;5.700;2023-01-16T04:17:58;11.32;;;1.98;;
58581;SDS011;44361;51.476;5.700;2023-01-16T04:20:24;12.57;;;1.85;;
58581;SDS011;44361;51.476;5.700;2023-01-16T04:22:52;10.07;;;1.92;;
58581;SDS011;44361;51.476;5.700;2023-01-16T04:25:18;9.60;;;1.88;;
58581;SDS011;44361;51.476;5.700;2023-01-16T04:27:44;12.48;;;2.00;;
58581;SDS011;44361;51.476;5.700;2023-01-16T04:30:10;6.72;;;1.65;;
58581;SDS011;44361;51.476;5.700;2023-01-16T04:32:36;11.02;;;1.70;;
58581;SDS011;44361;51.476;5.700;2023-01-16T04:35:02;4.60;;;1.63;;
58581;SDS011;44361;51.476;5.700;2023-01-16T04:37:28;5.95;;;1.73;;
58581;SDS011;44361;51.476;5.700;2023-01-16T04:39:54;7.50;;;1.45;;
58581;SDS011;44361;51.476;5.700;2023-01-16T04:42:19;7.93;;;2.28;;
58581;SDS011;44361;51.476;5.700;2023-01-16T04:44:45;3.88;;;1.00;;
58581;SDS011;44361;51.476;5.700;2023-01-16T04:47:10;12.43;;;1.85;;
58581;SDS011;44361;51.476;5.700;2023-01-16T04:49:36;5.97;;;1.45;;
58581;SDS011;44361;51.476;5.700;2023-01-16T04:52:02;5.50;;;1.45;;
58581;SDS011;44361;51.476;5.700;2023-01-16T04:54:27;6.97;;;1.10;;
58581;SDS011;44361;51.476;5.700;2023-01-16T04:56:53;7.85;;;1.75;;
58581;SDS011;44361;51.476;5.700;2023-01-16T04:59:18;10.32;;;1.30;;
58581;SDS011;44361;51.476;5.700;2023-01-16T05:01:44;4.38;;;1.40;;
58581;SDS011;44361;51.476;5.700;2023-01-16T05:04:11;4.70;;;1.35;;
58581;SDS011;44361;51.476;5.700;2023-01-16T05:06:38;4.53;;;1.00;;
58581;SDS011;44361;51.476;5.700;2023-01-16T05:09:04;9.13;;;1.10;;
58581;SDS011;44361;51.476;5.700;2023-01-16T05:11:31;6.60;;;1.20;;
58581;SDS011;44361;51.476;5.700;2023-01-16T05:13:57;8.98;;;1.02;;
58581;SDS011;44361;51.476;5.700;2023-01-16T05:16:23;7.32;;;0.85;;
58581;SDS011;44361;51.476;5.700;2023-01-16T05:18:49;3.95;;;0.63;;
58581;SDS011;44361;51.476;5.700;2023-01-16T05:21:14;7.13;;;1.05;;
58581;SDS011;44361;51.476;5.700;2023-01-16T05:23:39;7.57;;;0.95;;
58581;SDS011;44361;51.476;5.700;2023-01-16T05:26:05;3.28;;;0.85;;
58581;SDS011;44361;51.476;5.700;2023-01-16T05:28:32;3.92;;;1.10;;
58581;SDS011;44361;51.476;5.700;2023-01-16T05:30:58;6.53;;;1.05;;
58581;SDS011;44361;51.476;5.700;2023-01-16T05:33:24;6.63;;;1.23;;
58581;SDS011;44361;51.476;5.700;2023-01-16T05:35:50;3.50;;;0.85;;
58581;SDS011;44361;51.476;5.700;2023-01-16T05:38:16;6.03;;;1.17;;
58581;SDS011;44361;51.476;5.700;2023-01-16T05:40:43;3.83;;;0.50;;
58581;SDS011;44361;51.476;5.700;2023-01-16T05:43:09;5.80;;;1.33;;
58581;SDS011;44361;51.476;5.700;2023-01-16T05:45:35;5.32;;;1.00;;
58581;SDS011;44361;51.476;5.700;2023-01-16T05:48:00;4.50;;;1.00;;
58581;SDS011;44361;51.476;5.700;2023-01-16T05:50:26;6.60;;;1.20;;
58581;SDS011;44361;51.476;5.700;2023-01-16T05:52:52;7.53;;;1.38;;
58581;SDS011;44361;51.476;5.700;2023-01-16T05:55:17;3.70;;;1.30;;
58581;SDS011;44361;51.476;5.700;2023-01-16T05:57:43;6.28;;;1.15;;
58581;SDS011;44361;51.476;5.700;2023-01-16T06:00:09;1.63;;;0.60;;
58581;SDS011;44361;51.476;5.700;2023-01-16T06:02:35;3.65;;;0.88;;
58581;SDS011;44361;51.476;5.700;2023-01-16T06:05:01;5.00;;;0.63;;
58581;SDS011;44361;51.476;5.700;2023-01-16T06:07:27;5.53;;;1.30;;
58581;SDS011;44361;51.476;5.700;2023-01-16T06:09:52;3.95;;;0.52;;
58581;SDS011;44361;51.476;5.700;2023-01-16T06:12:18;1.55;;;0.75;;
58581;SDS011;44361;51.476;5.700;2023-01-16T06:14:44;3.95;;;0.98;;
58581;SDS011;44361;51.476;5.700;2023-01-16T06:17:10;4.05;;;0.90;;
58581;SDS011;44361;51.476;5.700;2023-01-16T06:19:39;2.45;;;1.05;;
58581;SDS011;44361;51.476;5.700;2023-01-16T06:22:05;6.57;;;0.50;;
58581;SDS011;44361;51.476;5.700;2023-01-16T06:24:30;4.53;;;0.80;;
58581;SDS011;44361;51.476;5.700;2023-01-16T06:26:56;9.68;;;0.90;;
58581;SDS011;44361;51.476;5.700;2023-01-16T06:29:21;5.93;;;1.50;;
58581;SDS011;44361;51.476;5.700;2023-01-16T06:31:47;7.18;;;0.93;;
58581;SDS011;44361;51.476;5.700;2023-01-16T06:34:12;3.45;;;0.80;;
58581;SDS011;44361;51.476;5.700;2023-01-16T06:36:38;2.25;;;0.50;;
58581;SDS011;44361;51.476;5.700;2023-01-16T06:39:03;3.40;;;0.90;;
58581;SDS011;44361;51.476;5.700;2023-01-16T06:41:29;3.63;;;0.70;;
58581;SDS011;44361;51.476;5.700;2023-01-16T06:43:54;7.43;;;1.23;;
58581;SDS011;44361;51.476;5.700;2023-01-16T06:46:20;3.17;;;0.68;;
58581;SDS011;44361;51.476;5.700;2023-01-16T06:48:45;7.28;;;0.98;;
58581;SDS011;44361;51.476;5.700;2023-01-16T06:51:11;7.53;;;0.95;;
58581;SDS011;44361;51.476;5.700;2023-01-16T06:53:36;7.25;;;0.65;;
58581;SDS011;44361;51.476;5.700;2023-01-16T06:56:02;5.35;;;0.88;;
58581;SDS011;44361;51.476;5.700;2023-01-16T06:58:28;5.15;;;0.93;;
58581;SDS011;44361;51.476;5.700;2023-01-16T07:00:53;5.07;;;0.70;;
58581;SDS011;44361;51.476;5.700;2023-01-16T07:03:20;1.45;;;0.55;;
58581;SDS011;44361;51.476;5.700;2023-01-16T07:05:46;5.72;;;0.80;;
58581;SDS011;44361;51.476;5.700;2023-01-16T07:08:12;3.90;;;0.70;;
58581;SDS011;44361;51.476;5.700;2023-01-16T07:10:38;3.88;;;0.70;;
58581;SDS011;44361;51.476;5.700;2023-01-16T07:13:04;3.58;;;0.70;;
58581;SDS011;44361;51.476;5.700;2023-01-16T07:15:30;6.40;;;0.77;;
58581;SDS011;44361;51.476;5.700;2023-01-16T07:18:14;2.13;;;0.82;;
58581;SDS011;44361;51.476;5.700;2023-01-16T07:21:05;4.05;;;0.60;;
58581;SDS011;44361;51.476;5.700;2023-01-16T07:23:58;4.75;;;0.80;;
58581;SDS011;44361;51.476;5.700;2023-01-16T07:26:30;6.10;;;1.00;;
58581;SDS011;44361;51.476;5.700;2023-01-16T07:28:56;8.25;;;1.15;;
58581;SDS011;44361;51.476;5.700;2023-01-16T07:31:23;2.85;;;0.98;;
58581;SDS011;44361;51.476;5.700;2023-01-16T07:33:49;5.95;;;0.80;;
58581;SDS011;44361;51.476;5.700;2023-01-16T07:36:15;2.45;;;0.80;;
58581;SDS011;44361;51.476;5.700;2023-01-16T07:38:40;3.75;;;0.80;;
58581;SDS011;44361;51.476;5.700;2023-01-16T07:41:07;6.40;;;1.13;;
58581;SDS011;44361;51.476;5.700;2023-01-16T07:43:32;4.43;;;1.13;;
58581;SDS011;44361;51.476;5.700;2023-01-16T07:45:58;5.70;;;1.08;;
58581;SDS011;44361;51.476;5.700;2023-01-16T07:48:23;6.65;;;1.20;;
58581;SDS011;44361;51.476;5.700;2023-01-16T07:50:53;3.67;;;0.90;;
58581;SDS011;44361;51.476;5.700;2023-01-16T07:53:20;4.78;;;0.70;;
58581;SDS011;44361;51.476;5.700;2023-01-16T07:55:51;5.70;;;1.17;;
58581;SDS011;44361;51.476;5.700;2023-01-16T07:58:21;6.97;;;1.10;;
58581;SDS011;44361;51.476;5.700;2023-01-16T08:00:47;3.03;;;1.10;;
58581;SDS011;44361;51.476;5.700;2023-01-16T08:03:13;5.43;;;1.02;;
58581;SDS011;44361;51.476;5.700;2023-01-16T08:05:39;2.85;;;1.00;;
58581;SDS011;44361;51.476;5.700;2023-01-16T08:08:06;6.57;;;1.05;;
58581;SDS011;44361;51.476;5.700;2023-01-16T08:10:31;6.03;;;0.93;;
58581;SDS011;44361;51.476;5.700;2023-01-16T08:12:57;4.88;;;0.60;;
58581;SDS011;44361;51.476;5.700;2023-01-16T08:15:22;6.68;;;0.82;;
58581;SDS011;44361;51.476;5.700;2023-01-16T08:17:48;5.18;;;0.98;;
58581;SDS011;44361;51.476;5.700;2023-01-16T08:20:13;3.40;;;1.40;;
58581;SDS011;44361;51.476;5.700;2023-01-16T08:22:45;7.00;;;1.00;;
58581;SDS011;44361;51.476;5.700;2023-01-16T08:25:13;4.55;;;1.00;;
58581;SDS011;44361;51.476;5.700;2023-01-16T08:27:39;4.50;;;0.77;;
58581;SDS011;44361;51.476;5.700;2023-01-16T08:30:05;6.32;;;1.20;;
58581;SDS011;44361;51.476;5.700;2023-01-16T08:32:32;5.10;;;1.13;;
58581;SDS011;44361;51.476;5.700;2023-01-16T08:34:58;5.43;;;1.00;;
58581;SDS011;44361;51.476;5.700;2023-01-16T08:37:23;6.85;;;1.30;;
58581;SDS011;44361;51.476;5.700;2023-01-16T08:39:49;4.28;;;0.80;;
58581;SDS011;44361;51.476;5.700;2023-01-16T08:42:14;4.05;;;0.80;;
58581;SDS011;44361;51.476;5.700;2023-01-16T08:44:58;4.32;;;0.88;;
58581;SDS011;44361;51.476;5.700;2023-01-16T08:47:42;4.00;;;1.15;;
58581;SDS011;44361;51.476;5.700;2023-01-16T08:50:27;8.80;;;1.80;;
58581;SDS011;44361;51.476;5.700;2023-01-16T08:53:11;5.25;;;1.10;;
58581;SDS011;44361;51.476;5.700;2023-01-16T08:55:36;3.33;;;1.17;;
58581;SDS011;44361;51.476;5.700;2023-01-16T08:58:04;2.90;;;0.60;;
58581;SDS011;44361;51.476;5.700;2023-01-16T09:00:29;3.05;;;0.80;;
58581;SDS011;44361;51.476;5.700;2023-01-16T09:02:55;1.85;;;0.70;;
58581;SDS011;44361;51.476;5.700;2023-01-16T09:05:23;2.67;;;0.80;;
58581;SDS011;44361;51.476;5.700;2023-01-16T09:07:49;4.10;;;0.95;;
58581;SDS011;44361;51.476;5.700;2023-01-16T09:10:14;5.18;;;1.08;;
58581;SDS011;44361;51.476;5.700;2023-01-16T09:12:40;1.67;;;0.50;;
58581;SDS011;44361;51.476;5.700;2023-01-16T09:15:24;2.47;;;1.00;;
58581;SDS011;44361;51.476;5.700;2023-01-16T09:17:50;4.28;;;0.70;;
58581;SDS011;44361;51.476;5.700;2023-01-16T09:20:16;2.17;;;0.60;;
58581;SDS011;44361;51.476;5.700;2023-01-16T09:22:42;3.95;;;0.60;;
58581;SDS011;44361;51.476;5.700;2023-01-16T09:25:08;2.10;;;0.38;;
58581;SDS011;44361;51.476;5.700;2023-01-16T09:27:34;2.50;;;0.50;;
58581;SDS011;44361;51.476;5.700;2023-01-16T09:30:00;0.40;;;0.30;;
58581;SDS011;44361;51.476;5.700;2023-01-16T09:32:25;0.35;;;0.30;;
58581;SDS011;44361;51.476;5.700;2023-01-16T09:34:51;1.33;;;0.32;;
58581;SDS011;44361;51.476;5.700;2023-01-16T09:37:17;0.52;;;0.30;;
58581;SDS011;44361;51.476;5.700;2023-01-16T09:39:43;0.22;;;0.20;;
58581;SDS011;44361;51.476;5.700;2023-01-16T09:45:09;0.50;;;0.40;;
58581;SDS011;44361;51.476;5.700;2023-01-16T09:47:39;2.23;;;0.50;;
58581;SDS011;44361;51.476;5.700;2023-01-16T09:50:13;0.40;;;0.20;;
58581;SDS011;44361;51.476;5.700;2023-01-16T09:52:49;0.30;;;0.22;;
58581;SDS011;44361;51.476;5.700;2023-01-16T09:55:46;0.17;;;0.10;;
58581;SDS011;44361;51.476;5.700;2023-01-16T09:58:36;1.35;;;0.45;;
58581;SDS011;44361;51.476;5.700;2023-01-16T10:01:06;0.52;;;0.40;;
58581;SDS011;44361;51.476;5.700;2023-01-16T10:03:35;0.80;;;0.40;;
58581;SDS011;44361;51.476;5.700;2023-01-16T10:06:27;0.90;;;0.40;;
58581;SDS011;44361;51.476;5.700;2023-01-16T10:09:06;1.33;;;0.30;;
58581;SDS011;44361;51.476;5.700;2023-01-16T10:14:27;0.75;;;0.38;;
58581;SDS011;44361;51.476;5.700;2023-01-16T10:17:13;0.25;;;0.25;;
58581;SDS011;44361;51.476;5.700;2023-01-16T10:27:57;1.42;;;0.40;;
58581;SDS011;44361;51.476;5.700;2023-01-16T10:30:31;3.67;;;0.40;;
58581;SDS011;44361;51.476;5.700;2023-01-16T10:33:47;0.70;;;0.30;;
58581;SDS011;44361;51.476;5.700;2023-01-16T10:36:03;2.97;;;0.43;;
58581;SDS011;44361;51.476;5.700;2023-01-16T10:38:34;1.25;;;0.30;;
58581;SDS011;44361;51.476;5.700;2023-01-16T10:41:20;1.95;;;0.38;;
58581;SDS011;44361;51.476;5.700;2023-01-16T10:44:30;0.52;;;0.20;;
58581;SDS011;44361;51.476;5.700;2023-01-16T10:47:20;0.38;;;0.17;;
58581;SDS011;44361;51.476;5.700;2023-01-16T10:50:16;0.38;;;0.15;;
58581;SDS011;44361;51.476;5.700;2023-01-16T10:52:44;0.75;;;0.20;;
58581;SDS011;44361;51.476;5.700;2023-01-16T10:55:11;1.23;;;0.22;;
58581;SDS011;44361;51.476;5.700;2023-01-16T10:57:44;0.63;;;0.30;;
58581;SDS011;44361;51.476;5.700;2023-01-16T11:00:31;0.45;;;0.20;;
58581;SDS011;44361;51.476;5.700;2023-01-16T11:03:01;0.65;;;0.35;;
58581;SDS011;44361;51.476;5.700;2023-01-16T11:05:37;0.15;;;0.10;;
58581;SDS011;44361;51.476;5.700;2023-01-16T11:10:35;0.73;;;0.30;;
58581;SDS011;44361;51.476;5.700;2023-01-16T11:13:01;0.30;;;0.10;;
58581;SDS011;44361;51.476;5.700;2023-01-16T11:16:02;2.55;;;0.25;;
58581;SDS011;44361;51.476;5.700;2023-01-16T11:18:49;0.73;;;0.32;;
58581;SDS011;44361;51.476;5.700;2023-01-16T11:23:43;0.93;;;0.20;;
58581;SDS011;44361;51.476;5.700;2023-01-16T11:26:12;0.60;;;0.20;;
58581;SDS011;44361;51.476;5.700;2023-01-16T11:28:38;0.40;;;0.20;;
58581;SDS011;44361;51.476;5.700;2023-01-16T11:31:14;0.98;;;0.40;;
58581;SDS011;44361;51.476;5.700;2023-01-16T11:33:46;0.32;;;0.20;;
58581;SDS011;44361;51.476;5.700;2023-01-16T11:36:19;0.98;;;0.20;;
58581;SDS011;44361;51.476;5.700;2023-01-16T11:38:46;0.45;;;0.20;;
58581;SDS011;44361;51.476;5.700;2023-01-16T11:41:16;1.27;;;0.22;;
58581;SDS011;44361;51.476;5.700;2023-01-16T11:44:12;0.38;;;0.10;;
58581;SDS011;44361;51.476;5.700;2023-01-16T11:46:57;1.48;;;0.20;;
58581;SDS011;44361;51.476;5.700;2023-01-16T11:49:24;2.40;;;0.30;;
58581;SDS011;44361;51.476;5.700;2023-01-16T11:52:14;0.50;;;0.30;;
58581;SDS011;44361;51.476;5.700;2023-01-16T11:54:55;0.63;;;0.20;;
58581;SDS011;44361;51.476;5.700;2023-01-16T12:03:26;0.75;;;0.22;;
58581;SDS011;44361;51.476;5.700;2023-01-16T12:08:50;0.60;;;0.30;;
58581;SDS011;44361;51.476;5.700;2023-01-16T12:14:24;1.08;;;0.35;;
58581;SDS011;44361;51.476;5.700;2023-01-16T12:19:52;0.40;;;0.20;;
58581;SDS011;44361;51.476;5.700;2023-01-16T12:22:51;1.95;;;0.63;;
58581;SDS011;44361;51.476;5.700;2023-01-16T12:45:50;0.13;;;0.10;;
58581;SDS011;44361;51.476;5.700;2023-01-16T12:48:41;0.15;;;0.10;;
58581;SDS011;44361;51.476;5.700;2023-01-16T12:51:40;0.32;;;0.20;;
58581;SDS011;44361;51.476;5.700;2023-01-16T12:54:32;1.63;;;0.30;;
58581;SDS011;44361;51.476;5.700;2023-01-16T12:57:21;1.48;;;0.10;;
58581;SDS011;44361;51.476;5.700;2023-01-16T13:00:01;0.40;;;0.17;;
58581;SDS011;44361;51.476;5.700;2023-01-16T13:02:46;0.40;;;0.20;;
58581;SDS011;44361;51.476;5.700;2023-01-16T13:05:38;0.57;;;0.20;;
58581;SDS011;44361;51.476;5.700;2023-01-16T13:08:09;0.98;;;0.25;;
58581;SDS011;44361;51.476;5.700;2023-01-16T13:10:56;0.57;;;0.13;;
58581;SDS011;44361;51.476;5.700;2023-01-16T13:13:49;0.32;;;0.20;;
58581;SDS011;44361;51.476;5.700;2023-01-16T13:16:32;0.40;;;0.20;;
58581;SDS011;44361;51.476;5.700;2023-01-16T13:19:04;0.70;;;0.20;;
58581;SDS011;44361;51.476;5.700;2023-01-16T13:21:39;0.65;;;0.30;;
58581;SDS011;44361;51.476;5.700;2023-01-16T13:24:24;2.28;;;0.20;;
58581;SDS011;44361;51.476;5.700;2023-01-16T13:26:59;1.65;;;0.20;;
58581;SDS011;44361;51.476;5.700;2023-01-16T13:29:41;2.75;;;0.35;;
58581;SDS011;44361;51.476;5.700;2023-01-16T13:34:54;0.80;;;0.40;;
58581;SDS011;44361;51.476;5.700;2023-01-16T13:40:21;1.15;;;0.30;;
58581;SDS011;44361;51.476;5.700;2023-01-16T13:42:56;0.57;;;0.30;;
58581;SDS011;44361;51.476;5.700;2023-01-16T13:45:44;0.32;;;0.20;;
58581;SDS011;44361;51.476;5.700;2023-01-16T13:48:22;1.98;;;0.30;;
58581;SDS011;44361;51.476;5.700;2023-01-16T13:51:00;2.72;;;0.10;;
58581;SDS011;44361;51.476;5.700;2023-01-16T13:53:28;2.35;;;0.28;;
58581;SDS011;44361;51.476;5.700;2023-01-16T13:56:08;0.40;;;0.30;;
58581;SDS011;44361;51.476;5.700;2023-01-16T13:58:38;0.28;;;0.28;;
58581;SDS011;44361;51.476;5.700;2023-01-16T14:01:07;0.60;;;0.22;;
58581;SDS011;44361;51.476;5.700;2023-01-16T14:06:45;0.85;;;0.30;;
58581;SDS011;44361;51.476;5.700;2023-01-16T14:09:57;0.17;;;0.13;;
58581;SDS011;44361;51.476;5.700;2023-01-16T14:12:59;0.45;;;0.20;;
58581;SDS011;44361;51.476;5.700;2023-01-16T14:15:56;1.58;;;0.40;;
58581;SDS011;44361;51.476;5.700;2023-01-16T14:21:23;0.77;;;0.25;;
58581;SDS011;44361;51.476;5.700;2023-01-16T14:23:54;0.32;;;0.20;;
58581;SDS011;44361;51.476;5.700;2023-01-16T14:29:20;0.52;;;0.35;;
58581;SDS011;44361;51.476;5.700;2023-01-16T14:31:51;1.05;;;0.22;;
58581;SDS011;44361;51.476;5.700;2023-01-16T14:34:32;1.05;;;0.30;;
58581;SDS011;44361;51.476;5.700;2023-01-16T14:37:15;1.30;;;0.30;;
58581;SDS011;44361;51.476;5.700;2023-01-16T14:39:56;1.83;;;0.40;;
58581;SDS011;44361;51.476;5.700;2023-01-16T14:42:28;1.05;;;0.40;;
58581;SDS011;44361;51.476;5.700;2023-01-16T14:48:13;1.73;;;0.50;;
58581;SDS011;44361;51.476;5.700;2023-01-16T14:50:59;1.95;;;0.60;;
58581;SDS011;44361;51.476;5.700;2023-01-16T14:54:00;1.15;;;0.45;;
58581;SDS011;44361;51.476;5.700;2023-01-16T14:56:50;1.35;;;0.30;;
58581;SDS011;44361;51.476;5.700;2023-01-16T14:59:25;0.82;;;0.30;;
58581;SDS011;44361;51.476;5.700;2023-01-16T15:02:16;0.50;;;0.30;;
58581;SDS011;44361;51.476;5.700;2023-01-16T15:07:38;1.55;;;0.30;;
58581;SDS011;44361;51.476;5.700;2023-01-16T15:10:16;0.57;;;0.30;;
58581;SDS011;44361;51.476;5.700;2023-01-16T15:12:45;1.35;;;0.57;;
58581;SDS011;44361;51.476;5.700;2023-01-16T15:15:27;1.67;;;0.70;;
58581;SDS011;44361;51.476;5.700;2023-01-16T15:17:54;1.17;;;0.55;;
58581;SDS011;44361;51.476;5.700;2023-01-16T15:20:44;1.35;;;0.40;;
58581;SDS011;44361;51.476;5.700;2023-01-16T15:23:49;1.00;;;0.40;;
58581;SDS011;44361;51.476;5.700;2023-01-16T15:31:29;1.63;;;0.60;;
58581;SDS011;44361;51.476;5.700;2023-01-16T15:33:58;1.88;;;0.73;;
58581;SDS011;44361;51.476;5.700;2023-01-16T15:39:12;2.28;;;0.93;;
58581;SDS011;44361;51.476;5.700;2023-01-16T15:41:43;2.08;;;0.75;;
58581;SDS011;44361;51.476;5.700;2023-01-16T15:44:33;1.58;;;1.02;;
58581;SDS011;44361;51.476;5.700;2023-01-16T15:49:49;1.88;;;0.82;;
58581;SDS011;44361;51.476;5.700;2023-01-16T15:55:09;1.77;;;0.88;;
58581;SDS011;44361;51.476;5.700;2023-01-16T15:57:42;1.77;;;1.05;;
58581;SDS011;44361;51.476;5.700;2023-01-16T16:00:44;3.65;;;2.00;;
58581;SDS011;44361;51.476;5.700;2023-01-16T16:05:34;2.50;;;1.50;;
58581;SDS011;44361;51.476;5.700;2023-01-16T16:08:00;4.88;;;1.70;;
58581;SDS011;44361;51.476;5.700;2023-01-16T16:10:26;3.97;;;1.77;;
58581;SDS011;44361;51.476;5.700;2023-01-16T16:13:12;3.08;;;1.35;;
58581;SDS011;44361;51.476;5.700;2023-01-16T16:15:55;2.38;;;1.10;;
58581;SDS011;44361;51.476;5.700;2023-01-16T16:18:53;2.58;;;0.85;;
58581;SDS011;44361;51.476;5.700;2023-01-16T16:21:24;3.00;;;1.20;;
58581;SDS011;44361;51.476;5.700;2023-01-16T16:23:53;3.55;;;1.20;;
58581;SDS011;44361;51.476;5.700;2023-01-16T16:26:23;2.72;;;0.80;;
58581;SDS011;44361;51.476;5.700;2023-01-16T16:28:49;2.35;;;1.02;;
58581;SDS011;44361;51.476;5.700;2023-01-16T16:31:16;1.92;;;1.00;;
58581;SDS011;44361;51.476;5.700;2023-01-16T16:33:59;7.18;;;0.82;;
58581;SDS011;44361;51.476;5.700;2023-01-16T16:36:40;1.10;;;0.80;;
58581;SDS011;44361;51.476;5.700;2023-01-16T16:41:53;1.70;;;0.85;;
58581;SDS011;44361;51.476;5.700;2023-01-16T16:44:38;1.10;;;0.75;;
58581;SDS011;44361;51.476;5.700;2023-01-16T16:47:27;1.20;;;0.85;;
58581;SDS011;44361;51.476;5.700;2023-01-16T16:49:54;2.90;;;1.33;;
58581;SDS011;44361;51.476;5.700;2023-01-16T16:55:35;1.52;;;0.98;;
58581;SDS011;44361;51.476;5.700;2023-01-16T16:58:04;1.58;;;0.80;;
58581;SDS011;44361;51.476;5.700;2023-01-16T17:00:36;1.65;;;0.98;;
58581;SDS011;44361;51.476;5.700;2023-01-16T17:03:03;4.88;;;1.20;;
58581;SDS011;44361;51.476;5.700;2023-01-16T17:05:50;2.78;;;1.10;;
58581;SDS011;44361;51.476;5.700;2023-01-16T17:08:27;1.30;;;1.00;;
58581;SDS011;44361;51.476;5.700;2023-01-16T17:10:53;3.60;;;1.00;;
58581;SDS011;44361;51.476;5.700;2023-01-16T17:13:19;3.25;;;1.25;;
58581;SDS011;44361;51.476;5.700;2023-01-16T17:15:46;2.58;;;1.10;;
58581;SDS011;44361;51.476;5.700;2023-01-16T17:18:14;1.92;;;0.95;;
58581;SDS011;44361;51.476;5.700;2023-01-16T17:20:41;1.13;;;1.00;;
58581;SDS011;44361;51.476;5.700;2023-01-16T17:23:10;1.52;;;1.30;;